sensor_id;sensor_type;location;lat;lon;timestamp;pressure;altitude;pressure_sealevel;temperature;humidity
10366;BME280;5229;41.820;23.490;2023-02-12T00:01:37;90552.63;;;-0.20;38.96
10366;BME280;5229;41.820;23.490;2023-02-12T00:04:04;90544.97;;;-0.20;38.84
10366;BME280;5229;41.820;23.490;2023-02-12T00:06:31;90540.19;;;-0.17;38.69
10366;BME280;5229;41.820;23.490;2023-02-12T00:08:59;90544.16;;;-0.09;38.56
10366;BME280;5229;41.820;23.490;2023-02-12T00:11:27;90535.38;;;-0.02;38.20
10366;BME280;5229;41.820;23.490;2023-02-12T00:13:55;90548.28;;;0.08;38.21
10366;BME280;5229;41.820;23.490;2023-02-12T00:16:24;90544.16;;;0.19;38.09
10366;BME280;5229;41.820;23.490;2023-02-12T00:18:52;90542.00;;;0.28;37.99
10366;BME280;5229;41.820;23.490;2023-02-12T00:21:20;90539.88;;;0.36;37.66
10366;BME280;5229;41.820;23.490;2023-02-12T00:23:48;90540.78;;;0.47;37.69
10366;BME280;5229;41.820;23.490;2023-02-12T00:26:17;90540.19;;;0.56;37.57
10366;BME280;5229;41.820;23.490;2023-02-12T00:28:45;90540.09;;;0.68;37.54
10366;BME280;5229;41.820;23.490;2023-02-12T00:31:14;90535.47;;;0.81;37.16
10366;BME280;5229;41.820;23.490;2023-02-12T00:33:41;90529.53;;;0.92;37.06
10366;BME280;5229;41.820;23.490;2023-02-12T00:36:09;90532.28;;;1.07;37.00
10366;BME280;5229;41.820;23.490;2023-02-12T00:38:38;90531.47;;;1.23;36.35
10366;BME280;5229;41.820;23.490;2023-02-12T00:41:05;90526.88;;;1.42;35.63
10366;BME280;5229;41.820;23.490;2023-02-12T00:43:33;90524.25;;;1.58;35.74
10366;BME280;5229;41.820;23.490;2023-02-12T00:46:00;90536.38;;;1.68;35.71
10366;BME280;5229;41.820;23.490;2023-02-12T00:48:27;90544.38;;;1.71;36.16
10366;BME280;5229;41.820;23.490;2023-02-12T00:50:53;90541.75;;;1.66;35.95
10366;BME280;5229;41.820;23.490;2023-02-12T00:53:20;90536.56;;;1.61;36.52
10366;BME280;5229;41.820;23.490;2023-02-12T00:55:47;90545.50;;;1.59;36.28
10366;BME280;5229;41.820;23.490;2023-02-12T00:58:14;90538.84;;;1.58;36.43
10366;BME280;5229;41.820;23.490;2023-02-12T01:00:43;90535.25;;;1.59;36.17
10366;BME280;5229;41.820;23.490;2023-02-12T01:03:10;90534.25;;;1.60;36.62
10366;BME280;5229;41.820;23.490;2023-02-12T01:05:37;90526.66;;;1.65;36.53
10366;BME280;5229;41.820;23.490;2023-02-12T01:08:04;90517.56;;;1.74;36.37
10366;BME280;5229;41.820;23.490;2023-02-12T01:10:31;90516.13;;;1.83;36.53
10366;BME280;5229;41.820;23.490;2023-02-12T01:12:59;90502.63;;;1.87;36.67
10366;BME280;5229;41.820;23.490;2023-02-12T01:15:26;90504.47;;;1.92;36.79
10366;BME280;5229;41.820;23.490;2023-02-12T01:17:54;90509.09;;;1.95;36.53
10366;BME280;5229;41.820;23.490;2023-02-12T01:20:22;90507.09;;;1.97;36.72
10366;BME280;5229;41.820;23.490;2023-02-12T01:22:50;90494.81;;;1.99;36.57
10366;BME280;5229;41.820;23.490;2023-02-12T01:25:17;90498.41;;;1.98;36.42
10366;BME280;5229;41.820;23.490;2023-02-12T01:27:44;90501.97;;;1.97;36.47
10366;BME280;5229;41.820;23.490;2023-02-12T01:30:13;90504.03;;;2.00;35.76
10366;BME280;5229;41.820;23.490;2023-02-12T01:32:40;90500.00;;;2.04;35.75
10366;BME280;5229;41.820;23.490;2023-02-12T01:35:09;90497.25;;;2.10;35.40
10366;BME280;5229;41.820;23.490;2023-02-12T01:37:37;90496.75;;;2.13;34.99
10366;BME280;5229;41.820;23.490;2023-02-12T01:40:06;90499.09;;;2.15;34.76
10366;BME280;5229;41.820;23.490;2023-02-12T01:42:34;90488.06;;;2.14;34.34
10366;BME280;5229;41.820;23.490;2023-02-12T01:45:38;90490.13;;;2.12;34.80
10366;BME280;5229;41.820;23.490;2023-02-12T01:48:10;90493.16;;;2.09;34.67
10366;BME280;5229;41.820;23.490;2023-02-12T01:50:39;90488.75;;;2.05;34.39
10366;BME280;5229;41.820;23.490;2023-02-12T01:53:07;90477.94;;;1.98;34.34
10366;BME280;5229;41.820;23.490;2023-02-12T01:55:34;90471.22;;;1.92;34.75
10366;BME280;5229;41.820;23.490;2023-02-12T01:58:01;90471.66;;;1.84;35.13
10366;BME280;5229;41.820;23.490;2023-02-12T02:00:29;90464.44;;;1.76;34.66
10366;BME280;5229;41.820;23.490;2023-02-12T02:02:58;90454.38;;;1.69;35.03
10366;BME280;5229;41.820;23.490;2023-02-12T02:05:30;90443.09;;;1.65;35.35
10366;BME280;5229;41.820;23.490;2023-02-12T02:08:02;90454.56;;;1.63;35.44
10366;BME280;5229;41.820;23.490;2023-02-12T02:10:29;90438.97;;;1.59;35.25
10366;BME280;5229;41.820;23.490;2023-02-12T02:12:56;90440.66;;;1.54;35.64
10366;BME280;5229;41.820;23.490;2023-02-12T02:15:55;90438.31;;;1.47;35.85
10366;BME280;5229;41.820;23.490;2023-02-12T02:18:30;90458.94;;;1.41;35.76
10366;BME280;5229;41.820;23.490;2023-02-12T02:21:18;90450.91;;;1.32;36.16
10366;BME280;5229;41.820;23.490;2023-02-12T02:24:06;90462.75;;;1.22;36.33
10366;BME280;5229;41.820;23.490;2023-02-12T02:27:05;90454.00;;;1.13;36.24
10366;BME280;5229;41.820;23.490;2023-02-12T02:32:49;90465.47;;;0.94;36.58
10366;BME280;5229;41.820;23.490;2023-02-12T02:35:25;90475.56;;;0.84;36.50
10366;BME280;5229;41.820;23.490;2023-02-12T02:38:02;90491.78;;;0.78;36.69
10366;BME280;5229;41.820;23.490;2023-02-12T02:40:36;90485.53;;;0.69;36.74
10366;BME280;5229;41.820;23.490;2023-02-12T02:43:06;90481.16;;;0.64;36.70
10366;BME280;5229;41.820;23.490;2023-02-12T02:45:38;90482.91;;;0.64;36.76
10366;BME280;5229;41.820;23.490;2023-02-12T02:48:13;90489.56;;;0.65;36.68
10366;BME280;5229;41.820;23.490;2023-02-12T02:50:45;90482.59;;;0.60;36.63
10366;BME280;5229;41.820;23.490;2023-02-12T02:53:16;90493.06;;;0.59;36.59
10366;BME280;5229;41.820;23.490;2023-02-12T02:55:47;90478.66;;;0.53;36.77
10366;BME280;5229;41.820;23.490;2023-02-12T02:58:18;90478.56;;;0.48;36.87
10366;BME280;5229;41.820;23.490;2023-02-12T03:00:49;90474.94;;;0.44;37.10
10366;BME280;5229;41.820;23.490;2023-02-12T03:03:26;90464.59;;;0.34;36.71
10366;BME280;5229;41.820;23.490;2023-02-12T03:05:58;90465.31;;;0.29;37.07
10366;BME280;5229;41.820;23.490;2023-02-12T03:08:28;90471.72;;;0.32;37.01
10366;BME280;5229;41.820;23.490;2023-02-12T03:11:01;90475.78;;;0.33;37.08
10366;BME280;5229;41.820;23.490;2023-02-12T03:13:33;90476.34;;;0.35;36.86
10366;BME280;5229;41.820;23.490;2023-02-12T03:16:06;90478.34;;;0.33;37.26
10366;BME280;5229;41.820;23.490;2023-02-12T03:18:41;90463.50;;;0.30;36.77
10366;BME280;5229;41.820;23.490;2023-02-12T03:21:11;90468.59;;;0.30;37.26
10366;BME280;5229;41.820;23.490;2023-02-12T03:23:41;90465.06;;;0.31;36.98
10366;BME280;5229;41.820;23.490;2023-02-12T03:26:14;90466.06;;;0.30;36.84
10366;BME280;5229;41.820;23.490;2023-02-12T03:28:45;90459.88;;;0.26;36.89
10366;BME280;5229;41.820;23.490;2023-02-12T03:31:19;90460.09;;;0.24;37.22
10366;BME280;5229;41.820;23.490;2023-02-12T03:33:59;90454.94;;;0.19;36.72
10366;BME280;5229;41.820;23.490;2023-02-12T03:36:36;90453.19;;;0.20;37.26
10366;BME280;5229;41.820;23.490;2023-02-12T03:39:09;90447.75;;;0.16;37.22
10366;BME280;5229;41.820;23.490;2023-02-12T03:41:41;90445.97;;;0.17;37.91
10366;BME280;5229;41.820;23.490;2023-02-12T03:44:16;90441.19;;;0.20;37.25
10366;BME280;5229;41.820;23.490;2023-02-12T03:46:52;90446.06;;;0.22;37.35
10366;BME280;5229;41.820;23.490;2023-02-12T03:49:29;90448.69;;;0.27;37.54
10366;BME280;5229;41.820;23.490;2023-02-12T03:51:57;90450.22;;;0.28;36.94
10366;BME280;5229;41.820;23.490;2023-02-12T03:54:25;90452.56;;;0.29;37.04
10366;BME280;5229;41.820;23.490;2023-02-12T03:56:54;90445.13;;;0.28;37.03
10366;BME280;5229;41.820;23.490;2023-02-12T03:59:24;90443.91;;;0.30;37.08
10366;BME280;5229;41.820;23.490;2023-02-12T04:01:53;90442.13;;;0.31;37.17
10366;BME280;5229;41.820;23.490;2023-02-12T04:04:20;90438.00;;;0.30;37.15
10366;BME280;5229;41.820;23.490;2023-02-12T04:06:51;90436.47;;;0.29;37.13
10366;BME280;5229;41.820;23.490;2023-02-12T04:09:19;90432.91;;;0.30;37.31
10366;BME280;5229;41.820;23.490;2023-02-12T04:12:03;90428.81;;;0.29;36.96
10366;BME280;5229;41.820;23.490;2023-02-12T04:14:41;90425.25;;;0.30;37.06
10366;BME280;5229;41.820;23.490;2023-02-12T04:17:19;90427.53;;;0.26;37.53
10366;BME280;5229;41.820;23.490;2023-02-12T04:19:55;90424.41;;;0.24;37.80
10366;BME280;5229;41.820;23.490;2023-02-12T04:22:35;90418.09;;;0.27;37.27
10366;BME280;5229;41.820;23.490;2023-02-12T04:25:15;90416.41;;;0.32;37.65
10366;BME280;5229;41.820;23.490;2023-02-12T04:27:47;90420.78;;;0.37;37.31
10366;BME280;5229;41.820;23.490;2023-02-12T04:30:20;90410.81;;;0.35;37.28
10366;BME280;5229;41.820;23.490;2023-02-12T04:32:52;90410.06;;;0.35;37.45
10366;BME280;5229;41.820;23.490;2023-02-12T04:35:25;90408.75;;;0.32;37.56
10366;BME280;5229;41.820;23.490;2023-02-12T04:37:58;90408.75;;;0.32;37.52
10366;BME280;5229;41.820;23.490;2023-02-12T04:40:29;90417.47;;;0.36;37.80
10366;BME280;5229;41.820;23.490;2023-02-12T04:42:56;90416.47;;;0.37;37.63
10366;BME280;5229;41.820;23.490;2023-02-12T04:45:25;90417.78;;;0.40;37.71
10366;BME280;5229;41.820;23.490;2023-02-12T04:47:53;90426.91;;;0.36;37.89
10366;BME280;5229;41.820;23.490;2023-02-12T04:50:20;90433.25;;;0.33;37.72
10366;BME280;5229;41.820;23.490;2023-02-12T04:52:47;90432.00;;;0.36;37.90
10366;BME280;5229;41.820;23.490;2023-02-12T04:55:15;90434.59;;;0.41;38.09
10366;BME280;5229;41.820;23.490;2023-02-12T04:57:42;90443.34;;;0.45;38.41
10366;BME280;5229;41.820;23.490;2023-02-12T05:00:12;90449.31;;;0.50;38.74
10366;BME280;5229;41.820;23.490;2023-02-12T05:02:39;90455.16;;;0.51;38.93
10366;BME280;5229;41.820;23.490;2023-02-12T05:05:06;90456.22;;;0.55;39.33
10366;BME280;5229;41.820;23.490;2023-02-12T05:07:33;90457.09;;;0.60;39.22
10366;BME280;5229;41.820;23.490;2023-02-12T05:10:00;90458.72;;;0.66;39.39
10366;BME280;5229;41.820;23.490;2023-02-12T05:12:28;90444.78;;;0.74;39.33
10366;BME280;5229;41.820;23.490;2023-02-12T05:14:54;90447.72;;;0.82;39.38
10366;BME280;5229;41.820;23.490;2023-02-12T05:17:22;90451.94;;;0.93;39.39
10366;BME280;5229;41.820;23.490;2023-02-12T05:19:50;90467.41;;;1.03;39.60
10366;BME280;5229;41.820;23.490;2023-02-12T05:22:17;90473.41;;;1.14;39.39
10366;BME280;5229;41.820;23.490;2023-02-12T05:24:44;90470.19;;;1.23;39.79
10366;BME280;5229;41.820;23.490;2023-02-12T05:27:11;90466.47;;;1.31;39.75
10366;BME280;5229;41.820;23.490;2023-02-12T05:29:39;90458.69;;;1.42;39.30
10366;BME280;5229;41.820;23.490;2023-02-12T05:32:07;90459.06;;;1.51;39.80
10366;BME280;5229;41.820;23.490;2023-02-12T05:34:34;90456.84;;;1.59;40.18
10366;BME280;5229;41.820;23.490;2023-02-12T05:37:01;90443.88;;;1.66;40.38
10366;BME280;5229;41.820;23.490;2023-02-12T05:39:27;90443.63;;;1.67;40.47
10366;BME280;5229;41.820;23.490;2023-02-12T05:41:54;90433.22;;;1.74;40.58
10366;BME280;5229;41.820;23.490;2023-02-12T05:44:21;90432.78;;;1.82;40.34
10366;BME280;5229;41.820;23.490;2023-02-12T05:46:49;90438.00;;;1.92;41.07
10366;BME280;5229;41.820;23.490;2023-02-12T05:49:17;90447.25;;;1.98;41.06
10366;BME280;5229;41.820;23.490;2023-02-12T05:51:44;90449.84;;;2.03;41.36
10366;BME280;5229;41.820;23.490;2023-02-12T05:54:11;90440.69;;;2.07;41.34
10366;BME280;5229;41.820;23.490;2023-02-12T05:56:42;90443.31;;;2.12;41.15
10366;BME280;5229;41.820;23.490;2023-02-12T05:59:13;90452.56;;;2.18;41.76
10366;BME280;5229;41.820;23.490;2023-02-12T06:01:42;90453.63;;;2.22;42.20
10366;BME280;5229;41.820;23.490;2023-02-12T06:04:13;90455.69;;;2.25;42.47
10366;BME280;5229;41.820;23.490;2023-02-12T06:06:40;90465.97;;;2.30;42.30
10366;BME280;5229;41.820;23.490;2023-02-12T06:09:07;90468.06;;;2.38;42.76
10366;BME280;5229;41.820;23.490;2023-02-12T06:11:34;90485.56;;;2.46;43.10
10366;BME280;5229;41.820;23.490;2023-02-12T06:14:01;90478.19;;;2.54;43.17
10366;BME280;5229;41.820;23.490;2023-02-12T06:16:29;90496.44;;;2.63;43.46
10366;BME280;5229;41.820;23.490;2023-02-12T06:18:56;90493.44;;;2.71;43.07
10366;BME280;5229;41.820;23.490;2023-02-12T06:21:25;90494.50;;;2.80;43.05
10366;BME280;5229;41.820;23.490;2023-02-12T06:23:52;90496.59;;;2.88;43.17
10366;BME280;5229;41.820;23.490;2023-02-12T06:26:19;90501.00;;;2.92;43.02
10366;BME280;5229;41.820;23.490;2023-02-12T06:28:46;90506.41;;;2.96;42.61
10366;BME280;5229;41.820;23.490;2023-02-12T06:31:18;90513.06;;;2.97;42.37
10366;BME280;5229;41.820;23.490;2023-02-12T06:33:46;90510.50;;;2.92;42.76
10366;BME280;5229;41.820;23.490;2023-02-12T06:36:13;90522.22;;;2.88;42.66
10366;BME280;5229;41.820;23.490;2023-02-12T06:38:41;90519.88;;;2.81;42.19
10366;BME280;5229;41.820;23.490;2023-02-12T06:41:08;90524.72;;;2.78;42.24
10366;BME280;5229;41.820;23.490;2023-02-12T06:43:35;90528.75;;;2.74;41.96
10366;BME280;5229;41.820;23.490;2023-02-12T06:46:03;90535.16;;;2.71;42.60
10366;BME280;5229;41.820;23.490;2023-02-12T06:48:30;90540.47;;;2.65;42.02
10366;BME280;5229;41.820;23.490;2023-02-12T06:51:03;90542.25;;;2.64;42.40
10366;BME280;5229;41.820;23.490;2023-02-12T06:53:31;90534.38;;;2.71;42.13
10366;BME280;5229;41.820;23.490;2023-02-12T06:56:01;90548.28;;;2.80;42.23
10366;BME280;5229;41.820;23.490;2023-02-12T06:58:28;90544.25;;;2.89;42.26
10366;BME280;5229;41.820;23.490;2023-02-12T07:00:55;90549.94;;;2.96;41.54
10366;BME280;5229;41.820;23.490;2023-02-12T07:03:21;90560.75;;;3.03;41.74
10366;BME280;5229;41.820;23.490;2023-02-12T07:05:48;90560.31;;;3.11;41.02
10366;BME280;5229;41.820;23.490;2023-02-12T07:08:15;90568.00;;;3.16;41.65
10366;BME280;5229;41.820;23.490;2023-02-12T07:10:42;90563.22;;;3.25;40.81
10366;BME280;5229;41.820;23.490;2023-02-12T07:13:10;90569.63;;;3.27;41.17
10366;BME280;5229;41.820;23.490;2023-02-12T07:15:38;90576.31;;;3.28;41.34
10366;BME280;5229;41.820;23.490;2023-02-12T07:18:05;90577.13;;;3.34;40.79
10366;BME280;5229;41.820;23.490;2023-02-12T07:20:32;90578.16;;;3.38;41.10
10366;BME280;5229;41.820;23.490;2023-02-12T07:22:59;90576.94;;;3.45;41.41
10366;BME280;5229;41.820;23.490;2023-02-12T07:25:25;90570.31;;;3.54;40.98
10366;BME280;5229;41.820;23.490;2023-02-12T07:27:52;90566.53;;;3.62;41.01
10366;BME280;5229;41.820;23.490;2023-02-12T07:30:20;90566.31;;;3.68;41.04
10366;BME280;5229;41.820;23.490;2023-02-12T07:32:47;90578.63;;;3.76;40.79
10366;BME280;5229;41.820;23.490;2023-02-12T07:35:14;90573.31;;;3.83;40.85
10366;BME280;5229;41.820;23.490;2023-02-12T07:37:41;90575.09;;;3.87;40.23
10366;BME280;5229;41.820;23.490;2023-02-12T07:40:08;90575.94;;;3.93;40.82
10366;BME280;5229;41.820;23.490;2023-02-12T07:42:35;90566.94;;;3.95;41.14
10366;BME280;5229;41.820;23.490;2023-02-12T07:45:02;90571.06;;;3.96;40.82
10366;BME280;5229;41.820;23.490;2023-02-12T07:47:31;90565.38;;;3.94;40.63
10366;BME280;5229;41.820;23.490;2023-02-12T07:49:57;90565.38;;;3.94;41.12
10366;BME280;5229;41.820;23.490;2023-02-12T07:52:24;90568.75;;;3.95;40.91
10366;BME280;5229;41.820;23.490;2023-02-12T07:54:51;90568.00;;;3.99;41.70
10366;BME280;5229;41.820;23.490;2023-02-12T07:57:17;90563.91;;;4.03;41.44
10366;BME280;5229;41.820;23.490;2023-02-12T07:59:44;90568.03;;;4.09;41.52
10366;BME280;5229;41.820;23.490;2023-02-12T08:02:11;90563.19;;;4.18;41.64
10366;BME280;5229;41.820;23.490;2023-02-12T08:04:39;90562.47;;;4.27;42.01
10366;BME280;5229;41.820;23.490;2023-02-12T08:07:06;90560.44;;;4.34;41.97
10366;BME280;5229;41.820;23.490;2023-02-12T08:09:33;90557.88;;;4.39;41.94
10366;BME280;5229;41.820;23.490;2023-02-12T08:11:59;90559.44;;;4.45;42.23
10366;BME280;5229;41.820;23.490;2023-02-12T08:14:26;90563.03;;;4.54;42.60
10366;BME280;5229;41.820;23.490;2023-02-12T08:16:53;90553.28;;;4.61;42.21
10366;BME280;5229;41.820;23.490;2023-02-12T08:19:20;90554.34;;;4.65;42.23
10366;BME280;5229;41.820;23.490;2023-02-12T08:21:50;90554.84;;;4.67;42.58
10366;BME280;5229;41.820;23.490;2023-02-12T08:24:17;90556.66;;;4.72;42.96
10366;BME280;5229;41.820;23.490;2023-02-12T08:26:46;90561.53;;;4.78;42.69
10366;BME280;5229;41.820;23.490;2023-02-12T08:29:14;90559.25;;;4.82;42.53
10366;BME280;5229;41.820;23.490;2023-02-12T08:31:43;90560.53;;;4.84;42.53
10366;BME280;5229;41.820;23.490;2023-02-12T08:34:16;90559.75;;;4.94;42.90
10366;BME280;5229;41.820;23.490;2023-02-12T08:36:43;90564.13;;;5.03;42.75
10366;BME280;5229;41.820;23.490;2023-02-12T08:39:14;90562.59;;;5.12;42.78
10366;BME280;5229;41.820;23.490;2023-02-12T08:41:41;90577.50;;;5.15;42.91
10366;BME280;5229;41.820;23.490;2023-02-12T08:44:08;90568.25;;;5.19;42.77
10366;BME280;5229;41.820;23.490;2023-02-12T08:46:37;90575.69;;;5.26;42.95
10366;BME280;5229;41.820;23.490;2023-02-12T08:49:06;90583.41;;;5.36;42.42
10366;BME280;5229;41.820;23.490;2023-02-12T08:51:34;90592.66;;;5.42;42.85
10366;BME280;5229;41.820;23.490;2023-02-12T08:54:03;90601.66;;;5.49;42.63
10366;BME280;5229;41.820;23.490;2023-02-12T08:56:33;90603.19;;;5.55;42.42
10366;BME280;5229;41.820;23.490;2023-02-12T08:59:01;90605.25;;;5.58;42.81
10366;BME280;5229;41.820;23.490;2023-02-12T09:01:31;90601.66;;;5.64;42.52
10366;BME280;5229;41.820;23.490;2023-02-12T09:03:58;90603.97;;;5.71;42.67
10366;BME280;5229;41.820;23.490;2023-02-12T09:06:26;90606.25;;;5.77;42.60
10366;BME280;5229;41.820;23.490;2023-02-12T09:08:54;90605.00;;;5.85;42.74
10366;BME280;5229;41.820;23.490;2023-02-12T09:11:23;90605.22;;;5.98;41.89
10366;BME280;5229;41.820;23.490;2023-02-12T09:13:57;90607.00;;;6.08;41.97
10366;BME280;5229;41.820;23.490;2023-02-12T09:16:26;90607.75;;;6.13;42.35
10366;BME280;5229;41.820;23.490;2023-02-12T09:18:54;90611.09;;;6.19;41.86
10366;BME280;5229;41.820;23.490;2023-02-12T09:21:21;90614.94;;;6.27;41.60
10366;BME280;5229;41.820;23.490;2023-02-12T09:23:48;90619.03;;;6.33;42.10
10366;BME280;5229;41.820;23.490;2023-02-12T09:26:17;90619.00;;;6.43;42.02
10366;BME280;5229;41.820;23.490;2023-02-12T09:28:46;90614.84;;;6.52;41.19
10366;BME280;5229;41.820;23.490;2023-02-12T09:31:16;90626.16;;;6.61;40.83
10366;BME280;5229;41.820;23.490;2023-02-12T09:33:43;90621.19;;;6.74;41.00
10366;BME280;5229;41.820;23.490;2023-02-12T09:36:11;90618.63;;;7.18;40.04
10366;BME280;5229;41.820;23.490;2023-02-12T09:38:38;90614.06;;;7.77;40.43
10366;BME280;5229;41.820;23.490;2023-02-12T09:41:33;90614.50;;;8.41;38.58
10366;BME280;5229;41.820;23.490;2023-02-12T09:44:08;90619.44;;;9.03;37.89
10366;BME280;5229;41.820;23.490;2023-02-12T09:46:41;90625.59;;;9.63;37.43
10366;BME280;5229;41.820;23.490;2023-02-12T09:49:20;90630.00;;;10.26;36.58
10366;BME280;5229;41.820;23.490;2023-02-12T09:51:50;90633.03;;;10.87;36.30
10366;BME280;5229;41.820;23.490;2023-02-12T09:54:20;90621.66;;;11.59;34.70
10366;BME280;5229;41.820;23.490;2023-02-12T09:56:50;90617.88;;;12.32;34.19
10366;BME280;5229;41.820;23.490;2023-02-12T09:59:25;90612.50;;;12.98;33.26
10366;BME280;5229;41.820;23.490;2023-02-12T10:01:57;90620.00;;;13.72;32.55
10366;BME280;5229;41.820;23.490;2023-02-12T10:04:25;90613.66;;;14.50;31.47
10366;BME280;5229;41.820;23.490;2023-02-12T10:06:59;90617.97;;;15.21;30.18
10366;BME280;5229;41.820;23.490;2023-02-12T10:09:39;90613.63;;;15.83;29.89
10366;BME280;5229;41.820;23.490;2023-02-12T10:12:17;90617.16;;;16.20;29.10
10366;BME280;5229;41.820;23.490;2023-02-12T10:15:11;90607.13;;;16.42;28.77
10366;BME280;5229;41.820;23.490;2023-02-12T10:17:44;90620.66;;;16.77;28.23
10366;BME280;5229;41.820;23.490;2023-02-12T10:20:31;90610.72;;;17.06;27.86
10366;BME280;5229;41.820;23.490;2023-02-12T10:23:21;90610.44;;;17.20;27.48
10366;BME280;5229;41.820;23.490;2023-02-12T10:25:52;90616.22;;;17.25;27.51
10366;BME280;5229;41.820;23.490;2023-02-12T10:28:25;90609.75;;;17.35;27.10
10366;BME280;5229;41.820;23.490;2023-02-12T10:30:54;90612.28;;;17.68;26.74
10366;BME280;5229;41.820;23.490;2023-02-12T10:33:27;90623.03;;;18.30;26.27
10366;BME280;5229;41.820;23.490;2023-02-12T10:36:00;90620.34;;;18.97;25.70
10366;BME280;5229;41.820;23.490;2023-02-12T10:38:30;90617.47;;;19.33;25.26
10366;BME280;5229;41.820;23.490;2023-02-12T10:40:59;90625.53;;;19.55;24.75
10366;BME280;5229;41.820;23.490;2023-02-12T10:43:27;90630.25;;;19.81;24.71
10366;BME280;5229;41.820;23.490;2023-02-12T10:45:54;90634.66;;;19.92;24.15
10366;BME280;5229;41.820;23.490;2023-02-12T10:48:25;90616.53;;;20.06;24.17
10366;BME280;5229;41.820;23.490;2023-02-12T10:51:04;90621.91;;;20.29;23.88
10366;BME280;5229;41.820;23.490;2023-02-12T10:53:38;90629.75;;;20.64;23.51
10366;BME280;5229;41.820;23.490;2023-02-12T10:56:14;90632.94;;;20.54;23.39
10366;BME280;5229;41.820;23.490;2023-02-12T10:58:52;90635.09;;;19.79;23.62
10366;BME280;5229;41.820;23.490;2023-02-12T11:01:23;90630.97;;;18.73;24.77
10366;BME280;5229;41.820;23.490;2023-02-12T11:03:53;90624.97;;;17.66;25.57
10366;BME280;5229;41.820;23.490;2023-02-12T11:06:22;90620.22;;;16.87;26.69
10366;BME280;5229;41.820;23.490;2023-02-12T11:08:50;90626.75;;;16.16;27.15
10366;BME280;5229;41.820;23.490;2023-02-12T11:11:20;90625.44;;;15.40;27.56
10366;BME280;5229;41.820;23.490;2023-02-12T11:13:54;90623.88;;;14.72;28.32
10366;BME280;5229;41.820;23.490;2023-02-12T11:16:30;90613.84;;;14.11;28.88
10366;BME280;5229;41.820;23.490;2023-02-12T11:19:01;90616.00;;;13.58;29.54
10366;BME280;5229;41.820;23.490;2023-02-12T11:21:30;90618.84;;;13.14;30.11
10366;BME280;5229;41.820;23.490;2023-02-12T11:24:20;90615.78;;;12.73;30.08
10366;BME280;5229;41.820;23.490;2023-02-12T11:26:48;90615.06;;;12.50;30.91
10366;BME280;5229;41.820;23.490;2023-02-12T11:29:19;90612.34;;;12.25;30.45
10366;BME280;5229;41.820;23.490;2023-02-12T11:32:00;90607.00;;;11.77;31.43
10366;BME280;5229;41.820;23.490;2023-02-12T11:34:28;90615.66;;;11.37;32.44
10366;BME280;5229;41.820;23.490;2023-02-12T11:36:56;90610.59;;;11.18;33.03
10366;BME280;5229;41.820;23.490;2023-02-12T11:39:26;90609.28;;;11.07;33.00
10366;BME280;5229;41.820;23.490;2023-02-12T11:41:55;90605.34;;;10.96;33.23
10366;BME280;5229;41.820;23.490;2023-02-12T11:44:25;90602.75;;;10.96;32.42
10366;BME280;5229;41.820;23.490;2023-02-12T11:46:55;90597.00;;;10.99;33.23
10366;BME280;5229;41.820;23.490;2023-02-12T11:49:27;90595.84;;;11.05;32.96
10366;BME280;5229;41.820;23.490;2023-02-12T11:51:57;90592.34;;;11.10;33.53
10366;BME280;5229;41.820;23.490;2023-02-12T11:54:28;90592.84;;;11.12;32.67
10366;BME280;5229;41.820;23.490;2023-02-12T11:56:55;90589.75;;;11.10;32.82
10366;BME280;5229;41.820;23.490;2023-02-12T11:59:34;90595.75;;;10.97;33.36
10366;BME280;5229;41.820;23.490;2023-02-12T12:02:08;90591.22;;;10.89;33.83
10366;BME280;5229;41.820;23.490;2023-02-12T12:04:42;90585.09;;;10.85;33.85
10366;BME280;5229;41.820;23.490;2023-02-12T12:07:16;90585.38;;;10.83;34.36
10366;BME280;5229;41.820;23.490;2023-02-12T12:09:49;90586.94;;;10.84;33.97
10366;BME280;5229;41.820;23.490;2023-02-12T12:12:23;90585.50;;;10.78;33.93
10366;BME280;5229;41.820;23.490;2023-02-12T12:14:54;90585.28;;;10.75;34.24
10366;BME280;5229;41.820;23.490;2023-02-12T12:18:00;90586.06;;;10.62;34.04
10366;BME280;5229;41.820;23.490;2023-02-12T12:20:53;90596.81;;;10.55;35.19
10366;BME280;5229;41.820;23.490;2023-02-12T12:23:24;90589.91;;;10.51;34.81
10366;BME280;5229;41.820;23.490;2023-02-12T12:26:00;90590.78;;;10.46;34.68
10366;BME280;5229;41.820;23.490;2023-02-12T12:28:32;90588.75;;;10.43;34.60
10366;BME280;5229;41.820;23.490;2023-02-12T12:31:06;90593.44;;;10.41;34.65
10366;BME280;5229;41.820;23.490;2023-02-12T12:33:38;90587.78;;;10.39;35.26
10366;BME280;5229;41.820;23.490;2023-02-12T12:36:34;90593.72;;;10.40;35.01
10366;BME280;5229;41.820;23.490;2023-02-12T12:39:14;90600.75;;;10.39;35.02
10366;BME280;5229;41.820;23.490;2023-02-12T12:41:56;90601.81;;;10.38;35.32
10366;BME280;5229;41.820;23.490;2023-02-12T12:44:34;90612.94;;;10.39;35.81
10366;BME280;5229;41.820;23.490;2023-02-12T12:47:17;90614.56;;;10.35;35.01
10366;BME280;5229;41.820;23.490;2023-02-12T12:49:53;90610.44;;;10.34;35.63
10366;BME280;5229;41.820;23.490;2023-02-12T12:52:41;90619.06;;;10.29;35.04
10366;BME280;5229;41.820;23.490;2023-02-12T12:55:31;90618.50;;;10.19;34.96
10366;BME280;5229;41.820;23.490;2023-02-12T12:58:11;90613.66;;;10.12;35.27
10366;BME280;5229;41.820;23.490;2023-02-12T13:00:52;90622.84;;;10.05;34.82
10366;BME280;5229;41.820;23.490;2023-02-12T13:03:47;90615.16;;;10.00;35.17
10366;BME280;5229;41.820;23.490;2023-02-12T13:09:36;90619.75;;;9.89;35.01
10366;BME280;5229;41.820;23.490;2023-02-12T13:12:27;90622.59;;;9.88;34.42
10366;BME280;5229;41.820;23.490;2023-02-12T13:15:02;90631.63;;;9.90;34.53
10366;BME280;5229;41.820;23.490;2023-02-12T13:17:35;90639.19;;;9.87;34.24
10366;BME280;5229;41.820;23.490;2023-02-12T13:20:09;90637.75;;;9.81;34.16
10366;BME280;5229;41.820;23.490;2023-02-12T13:22:44;90653.63;;;9.74;34.69
10366;BME280;5229;41.820;23.490;2023-02-12T13:25:21;90644.47;;;9.63;34.37
10366;BME280;5229;41.820;23.490;2023-02-12T13:27:51;90656.25;;;9.56;34.63
10366;BME280;5229;41.820;23.490;2023-02-12T13:30:22;90657.34;;;9.50;34.70
10366;BME280;5229;41.820;23.490;2023-02-12T13:32:58;90659.81;;;9.41;34.49
10366;BME280;5229;41.820;23.490;2023-02-12T13:35:28;90656.78;;;9.34;34.52